sensor_id;sensor_type;location;lat;lon;timestamp;temperature;humidity
30250;DHT22;17064;47.974;13.826;2023-05-07T00:04:39;11.90;99.90
30250;DHT22;17064;47.974;13.826;2023-05-07T00:09:39;11.90;99.90
30250;DHT22;17064;47.974;13.826;2023-05-07T00:14:41;11.90;99.90
30250;DHT22;17064;47.974;13.826;2023-05-07T00:19:41;11.90;99.90
30250;DHT22;17064;47.974;13.826;2023-05-07T00:24:42;11.90;99.90
30250;DHT22;17064;47.974;13.826;2023-05-07T00:29:43;11.80;99.90
30250;DHT22;17064;47.974;13.826;2023-05-07T00:34:44;11.80;99.90
30250;DHT22;17064;47.974;13.826;2023-05-07T00:39:44;11.70;99.90
30250;DHT22;17064;47.974;13.826;2023-05-07T00:44:45;11.60;99.90
30250;DHT22;17064;47.974;13.826;2023-05-07T00:49:46;11.60;99.90
30250;DHT22;17064;47.974;13.826;2023-05-07T00:54:47;11.50;99.90
30250;DHT22;17064;47.974;13.826;2023-05-07T00:59:49;11.40;99.90
30250;DHT22;17064;47.974;13.826;2023-05-07T01:04:50;11.40;99.90
30250;DHT22;17064;47.974;13.826;2023-05-07T01:09:51;11.30;99.90
30250;DHT22;17064;47.974;13.826;2023-05-07T01:14:52;11.30;99.90
30250;DHT22;17064;47.974;13.826;2023-05-07T01:19:53;11.30;99.90
30250;DHT22;17064;47.974;13.826;2023-05-07T01:24:54;11.20;99.90
30250;DHT22;17064;47.974;13.826;2023-05-07T01:29:56;11.20;99.90
30250;DHT22;17064;47.974;13.826;2023-05-07T01:34:57;11.10;99.90
30250;DHT22;17064;47.974;13.826;2023-05-07T01:39:59;11.10;99.90
30250;DHT22;17064;47.974;13.826;2023-05-07T01:45:01;11.00;99.90
30250;DHT22;17064;47.974;13.826;2023-05-07T01:50:05;11.00;99.90
30250;DHT22;17064;47.974;13.826;2023-05-07T01:55:06;11.00;99.90
30250;DHT22;17064;47.974;13.826;2023-05-07T02:00:07;11.00;99.90
30250;DHT22;17064;47.974;13.826;2023-05-07T02:05:09;10.90;99.90
30250;DHT22;17064;47.974;13.826;2023-05-07T02:10:11;10.90;99.90
30250;DHT22;17064;47.974;13.826;2023-05-07T02:15:12;10.80;99.90
30250;DHT22;17064;47.974;13.826;2023-05-07T02:20:12;10.80;99.90
30250;DHT22;17064;47.974;13.826;2023-05-07T02:25:13;10.80;99.90
30250;DHT22;17064;47.974;13.826;2023-05-07T02:30:14;10.80;99.90
30250;DHT22;17064;47.974;13.826;2023-05-07T02:35:15;10.80;99.90
30250;DHT22;17064;47.974;13.826;2023-05-07T02:40:16;10.90;99.90
30250;DHT22;17064;47.974;13.826;2023-05-07T02:45:17;10.90;99.90
30250;DHT22;17064;47.974;13.826;2023-05-07T02:50:19;10.80;99.90
30250;DHT22;17064;47.974;13.826;2023-05-07T02:55:19;10.80;99.90
30250;DHT22;17064;47.974;13.826;2023-05-07T03:00:20;10.80;99.90
30250;DHT22;17064;47.974;13.826;2023-05-07T03:05:21;10.80;99.90
30250;DHT22;17064;47.974;13.826;2023-05-07T03:10:23;10.80;99.90
30250;DHT22;17064;47.974;13.826;2023-05-07T03:15:23;10.80;99.90
30250;DHT22;17064;47.974;13.826;2023-05-07T03:20:24;10.70;99.90
30250;DHT22;17064;47.974;13.826;2023-05-07T03:25:25;10.70;99.90
30250;DHT22;17064;47.974;13.826;2023-05-07T03:30:27;10.60;99.90
30250;DHT22;17064;47.974;13.826;2023-05-07T03:35:28;10.50;99.90
30250;DHT22;17064;47.974;13.826;2023-05-07T03:40:29;10.50;99.90
30250;DHT22;17064;47.974;13.826;2023-05-07T03:45:29;10.50;99.90
30250;DHT22;17064;47.974;13.826;2023-05-07T03:50:30;10.50;99.90
30250;DHT22;17064;47.974;13.826;2023-05-07T03:55:31;10.50;99.90
30250;DHT22;17064;47.974;13.826;2023-05-07T04:00:32;10.50;99.90
30250;DHT22;17064;47.974;13.826;2023-05-07T04:05:37;10.50;99.90
30250;DHT22;17064;47.974;13.826;2023-05-07T04:10:38;10.50;99.90
30250;DHT22;17064;47.974;13.826;2023-05-07T04:15:38;10.50;99.90
30250;DHT22;17064;47.974;13.826;2023-05-07T04:20:39;10.50;99.90
30250;DHT22;17064;47.974;13.826;2023-05-07T04:25:40;10.60;99.90
30250;DHT22;17064;47.974;13.826;2023-05-07T04:30:41;10.70;99.90
30250;DHT22;17064;47.974;13.826;2023-05-07T04:35:41;10.70;99.90
30250;DHT22;17064;47.974;13.826;2023-05-07T04:40:42;10.70;99.90
30250;DHT22;17064;47.974;13.826;2023-05-07T04:45:43;10.80;99.90
30250;DHT22;17064;47.974;13.826;2023-05-07T04:50:44;10.90;99.90
30250;DHT22;17064;47.974;13.826;2023-05-07T04:55:45;11.00;99.90
30250;DHT22;17064;47.974;13.826;2023-05-07T05:00:46;11.10;99.90
30250;DHT22;17064;47.974;13.826;2023-05-07T05:05:49;11.20;99.90
30250;DHT22;17064;47.974;13.826;2023-05-07T05:10:50;11.30;99.90
30250;DHT22;17064;47.974;13.826;2023-05-07T05:15:50;11.50;99.90
30250;DHT22;17064;47.974;13.826;2023-05-07T05:20:51;11.70;99.90
30250;DHT22;17064;47.974;13.826;2023-05-07T05:25:56;11.80;99.90
30250;DHT22;17064;47.974;13.826;2023-05-07T05:30:58;11.90;99.90
30250;DHT22;17064;47.974;13.826;2023-05-07T05:35:58;12.10;99.90
30250;DHT22;17064;47.974;13.826;2023-05-07T05:40:59;12.30;99.90
30250;DHT22;17064;47.974;13.826;2023-05-07T05:46:00;12.40;99.90
30250;DHT22;17064;47.974;13.826;2023-05-07T05:51:01;12.60;99.90
30250;DHT22;17064;47.974;13.826;2023-05-07T05:56:02;12.70;99.90
30250;DHT22;17064;47.974;13.826;2023-05-07T06:01:02;12.90;99.90
30250;DHT22;17064;47.974;13.826;2023-05-07T06:06:03;13.10;99.90
30250;DHT22;17064;47.974;13.826;2023-05-07T06:11:04;13.30;99.90
30250;DHT22;17064;47.974;13.826;2023-05-07T06:16:05;13.40;99.90
30250;DHT22;17064;47.974;13.826;2023-05-07T06:21:06;13.50;99.90
30250;DHT22;17064;47.974;13.826;2023-05-07T06:26:07;13.60;99.90
30250;DHT22;17064;47.974;13.826;2023-05-07T06:31:15;13.60;99.90
30250;DHT22;17064;47.974;13.826;2023-05-07T06:36:16;13.70;99.90
30250;DHT22;17064;47.974;13.826;2023-05-07T06:41:17;13.70;99.90
30250;DHT22;17064;47.974;13.826;2023-05-07T06:46:17;13.90;99.90
30250;DHT22;17064;47.974;13.826;2023-05-07T06:51:19;14.30;99.90
30250;DHT22;17064;47.974;13.826;2023-05-07T06:56:20;14.80;99.90
30250;DHT22;17064;47.974;13.826;2023-05-07T07:01:21;15.20;99.90
30250;DHT22;17064;47.974;13.826;2023-05-07T07:06:22;15.60;99.90
30250;DHT22;17064;47.974;13.826;2023-05-07T07:11:23;15.70;99.90
30250;DHT22;17064;47.974;13.826;2023-05-07T07:16:23;15.90;99.90
30250;DHT22;17064;47.974;13.826;2023-05-07T07:21:24;16.10;99.90
30250;DHT22;17064;47.974;13.826;2023-05-07T07:26:25;16.40;99.90
30250;DHT22;17064;47.974;13.826;2023-05-07T07:31:26;16.60;99.90
30250;DHT22;17064;47.974;13.826;2023-05-07T07:36:26;16.70;99.90
30250;DHT22;17064;47.974;13.826;2023-05-07T07:41:27;17.00;99.90
30250;DHT22;17064;47.974;13.826;2023-05-07T07:46:28;17.20;99.90
30250;DHT22;17064;47.974;13.826;2023-05-07T07:51:30;17.00;99.90
30250;DHT22;17064;47.974;13.826;2023-05-07T07:56:34;17.10;99.90
30250;DHT22;17064;47.974;13.826;2023-05-07T08:01:36;16.90;99.90
30250;DHT22;17064;47.974;13.826;2023-05-07T08:06:39;16.90;99.90
30250;DHT22;17064;47.974;13.826;2023-05-07T08:11:43;17.10;99.90
30250;DHT22;17064;47.974;13.826;2023-05-07T08:16:44;17.20;99.90
30250;DHT22;17064;47.974;13.826;2023-05-07T08:21:45;17.60;99.90
30250;DHT22;17064;47.974;13.826;2023-05-07T08:26:47;17.60;99.90
30250;DHT22;17064;47.974;13.826;2023-05-07T08:31:49;17.80;99.90
30250;DHT22;17064;47.974;13.826;2023-05-07T08:36:50;18.20;99.90
30250;DHT22;17064;47.974;13.826;2023-05-07T08:41:55;18.60;99.90
30250;DHT22;17064;47.974;13.826;2023-05-07T08:47:00;19.00;99.90
30250;DHT22;17064;47.974;13.826;2023-05-07T08:52:01;19.40;99.90
30250;DHT22;17064;47.974;13.826;2023-05-07T08:57:02;19.80;99.90
30250;DHT22;17064;47.974;13.826;2023-05-07T09:02:03;20.20;99.90
30250;DHT22;17064;47.974;13.826;2023-05-07T09:07:04;20.30;99.90
30250;DHT22;17064;47.974;13.826;2023-05-07T09:12:06;20.50;99.90
30250;DHT22;17064;47.974;13.826;2023-05-07T09:17:06;20.80;99.90
30250;DHT22;17064;47.974;13.826;2023-05-07T09:22:07;20.70;99.90
30250;DHT22;17064;47.974;13.826;2023-05-07T09:27:08;20.70;99.90
30250;DHT22;17064;47.974;13.826;2023-05-07T09:32:10;20.90;99.90
30250;DHT22;17064;47.974;13.826;2023-05-07T09:37:12;21.10;99.90
30250;DHT22;17064;47.974;13.826;2023-05-07T09:42:14;21.50;99.90
30250;DHT22;17064;47.974;13.826;2023-05-07T09:47:19;21.60;99.90
30250;DHT22;17064;47.974;13.826;2023-05-07T09:52:20;21.70;99.90
30250;DHT22;17064;47.974;13.826;2023-05-07T09:57:22;21.90;99.90
30250;DHT22;17064;47.974;13.826;2023-05-07T10:02:25;21.90;97.40
30250;DHT22;17064;47.974;13.826;2023-05-07T10:07:27;21.80;97.40
30250;DHT22;17064;47.974;13.826;2023-05-07T10:12:29;22.10;98.00
30250;DHT22;17064;47.974;13.826;2023-05-07T10:17:30;22.10;96.40
30250;DHT22;17064;47.974;13.826;2023-05-07T10:22:39;22.10;94.30
30250;DHT22;17064;47.974;13.826;2023-05-07T10:27:41;22.00;95.80
30250;DHT22;17064;47.974;13.826;2023-05-07T10:32:46;22.30;96.70
30250;DHT22;17064;47.974;13.826;2023-05-07T10:37:48;22.70;93.50
30250;DHT22;17064;47.974;13.826;2023-05-07T10:42:55;22.70;93.20
30250;DHT22;17064;47.974;13.826;2023-05-07T10:48:16;22.90;93.20
30250;DHT22;17064;47.974;13.826;2023-05-07T10:58:28;23.30;92.40
30250;DHT22;17064;47.974;13.826;2023-05-07T11:09:08;23.30;90.50
30250;DHT22;17064;47.974;13.826;2023-05-07T11:14:09;23.50;91.90
30250;DHT22;17064;47.974;13.826;2023-05-07T11:19:09;23.90;90.30
30250;DHT22;17064;47.974;13.826;2023-05-07T11:24:10;23.80;87.50
30250;DHT22;17064;47.974;13.826;2023-05-07T11:29:12;24.00;87.50
30250;DHT22;17064;47.974;13.826;2023-05-07T11:34:14;24.30;87.40
30250;DHT22;17064;47.974;13.826;2023-05-07T11:39:28;24.50;89.20
30250;DHT22;17064;47.974;13.826;2023-05-07T11:44:46;24.40;73.20
30250;DHT22;17064;47.974;13.826;2023-05-07T11:49:50;24.00;79.50
30250;DHT22;17064;47.974;13.826;2023-05-07T11:54:52;24.10;76.00
30250;DHT22;17064;47.974;13.826;2023-05-07T11:59:57;23.80;75.00
30250;DHT22;17064;47.974;13.826;2023-05-07T12:05:00;23.50;73.10
30250;DHT22;17064;47.974;13.826;2023-05-07T12:10:07;23.70;77.80
30250;DHT22;17064;47.974;13.826;2023-05-07T12:15:08;24.10;77.00
30250;DHT22;17064;47.974;13.826;2023-05-07T12:20:09;24.10;73.60
30250;DHT22;17064;47.974;13.826;2023-05-07T12:25:10;24.20;68.90
30250;DHT22;17064;47.974;13.826;2023-05-07T12:30:12;24.10;73.00
30250;DHT22;17064;47.974;13.826;2023-05-07T12:35:13;24.30;71.30
30250;DHT22;17064;47.974;13.826;2023-05-07T12:40:14;24.30;71.80
30250;DHT22;17064;47.974;13.826;2023-05-07T12:45:17;24.60;71.10
30250;DHT22;17064;47.974;13.826;2023-05-07T12:50:18;24.60;67.80
30250;DHT22;17064;47.974;13.826;2023-05-07T12:55:21;24.60;72.30
30250;DHT22;17064;47.974;13.826;2023-05-07T13:00:37;24.40;68.10
30250;DHT22;17064;47.974;13.826;2023-05-07T13:05:38;24.10;65.70
30250;DHT22;17064;47.974;13.826;2023-05-07T13:10:39;23.90;68.90
30250;DHT22;17064;47.974;13.826;2023-05-07T13:15:40;23.90;70.70
30250;DHT22;17064;47.974;13.826;2023-05-07T13:20:40;23.60;68.90
30250;DHT22;17064;47.974;13.826;2023-05-07T13:25:41;23.40;64.10
30250;DHT22;17064;47.974;13.826;2023-05-07T13:30:42;23.20;69.80
30250;DHT22;17064;47.974;13.826;2023-05-07T13:35:43;23.20;66.80
30250;DHT22;17064;47.974;13.826;2023-05-07T13:40:43;23.30;66.40
30250;DHT22;17064;47.974;13.826;2023-05-07T13:45:44;23.50;68.00
30250;DHT22;17064;47.974;13.826;2023-05-07T13:50:45;23.50;68.40
30250;DHT22;17064;47.974;13.826;2023-05-07T13:55:46;23.30;64.90
30250;DHT22;17064;47.974;13.826;2023-05-07T14:00:46;23.20;69.00
30250;DHT22;17064;47.974;13.826;2023-05-07T14:05:47;23.10;68.40
30250;DHT22;17064;47.974;13.826;2023-05-07T14:10:48;23.00;66.60
30250;DHT22;17064;47.974;13.826;2023-05-07T14:15:48;22.90;66.80
30250;DHT22;17064;47.974;13.826;2023-05-07T14:20:49;22.80;67.80
30250;DHT22;17064;47.974;13.826;2023-05-07T14:25:50;22.70;72.30
30250;DHT22;17064;47.974;13.826;2023-05-07T14:30:51;22.50;71.20
30250;DHT22;17064;47.974;13.826;2023-05-07T14:35:52;22.30;71.80
30250;DHT22;17064;47.974;13.826;2023-05-07T14:40:53;22.30;70.80
30250;DHT22;17064;47.974;13.826;2023-05-07T14:45:56;22.30;72.40
30250;DHT22;17064;47.974;13.826;2023-05-07T14:50:56;22.30;73.20
30250;DHT22;17064;47.974;13.826;2023-05-07T14:55:57;22.10;72.70
30250;DHT22;17064;47.974;13.826;2023-05-07T15:00:58;21.90;73.30
30250;DHT22;17064;47.974;13.826;2023-05-07T15:05:59;21.70;73.00
30250;DHT22;17064;47.974;13.826;2023-05-07T15:11:00;21.40;74.70
30250;DHT22;17064;47.974;13.826;2023-05-07T15:16:01;21.20;76.50
30250;DHT22;17064;47.974;13.826;2023-05-07T15:21:02;21.00;76.00
30250;DHT22;17064;47.974;13.826;2023-05-07T15:26:04;20.90;78.50
30250;DHT22;17064;47.974;13.826;2023-05-07T15:31:05;20.70;80.20
30250;DHT22;17064;47.974;13.826;2023-05-07T15:36:07;20.40;81.70
30250;DHT22;17064;47.974;13.826;2023-05-07T15:41:08;20.20;82.00
30250;DHT22;17064;47.974;13.826;2023-05-07T15:46:09;20.00;82.40
30250;DHT22;17064;47.974;13.826;2023-05-07T15:51:10;19.80;85.20
30250;DHT22;17064;47.974;13.826;2023-05-07T15:56:12;19.70;86.40
30250;DHT22;17064;47.974;13.826;2023-05-07T16:01:12;19.70;86.00
30250;DHT22;17064;47.974;13.826;2023-05-07T16:06:13;19.60;88.10
30250;DHT22;17064;47.974;13.826;2023-05-07T16:11:14;19.60;85.70
30250;DHT22;17064;47.974;13.826;2023-05-07T16:16:14;19.50;85.70
30250;DHT22;17064;47.974;13.826;2023-05-07T16:21:15;19.40;87.40
30250;DHT22;17064;47.974;13.826;2023-05-07T16:26:17;19.20;85.40
30250;DHT22;17064;47.974;13.826;2023-05-07T16:31:18;19.10;87.50
30250;DHT22;17064;47.974;13.826;2023-05-07T16:36:18;18.90;87.60
30250;DHT22;17064;47.974;13.826;2023-05-07T16:41:19;18.70;89.10
30250;DHT22;17064;47.974;13.826;2023-05-07T16:46:20;18.50;90.40
30250;DHT22;17064;47.974;13.826;2023-05-07T16:51:21;18.30;90.90
30250;DHT22;17064;47.974;13.826;2023-05-07T16:56:23;18.20;91.60
30250;DHT22;17064;47.974;13.826;2023-05-07T17:01:25;18.10;92.40
30250;DHT22;17064;47.974;13.826;2023-05-07T17:06:26;17.90;92.70
30250;DHT22;17064;47.974;13.826;2023-05-07T17:11:26;17.80;93.00
30250;DHT22;17064;47.974;13.826;2023-05-07T17:16:30;17.70;94.00
30250;DHT22;17064;47.974;13.826;2023-05-07T17:21:31;17.50;94.30
30250;DHT22;17064;47.974;13.826;2023-05-07T17:26:31;17.40;94.80
30250;DHT22;17064;47.974;13.826;2023-05-07T17:31:35;17.30;95.30
30250;DHT22;17064;47.974;13.826;2023-05-07T17:36:39;17.20;95.90
30250;DHT22;17064;47.974;13.826;2023-05-07T17:41:40;17.10;96.30
30250;DHT22;17064;47.974;13.826;2023-05-07T17:46:41;16.90;97.10
30250;DHT22;17064;47.974;13.826;2023-05-07T17:51:41;16.80;96.90
30250;DHT22;17064;47.974;13.826;2023-05-07T17:56:42;16.70;98.30
30250;DHT22;17064;47.974;13.826;2023-05-07T18:01:43;16.60;99.20
30250;DHT22;17064;47.974;13.826;2023-05-07T18:06:44;16.40;99.90
30250;DHT22;17064;47.974;13.826;2023-05-07T18:11:45;16.30;99.90
30250;DHT22;17064;47.974;13.826;2023-05-07T18:16:45;16.10;99.90
30250;DHT22;17064;47.974;13.826;2023-05-07T18:21:46;16.00;99.90
30250;DHT22;17064;47.974;13.826;2023-05-07T18:26:47;15.90;99.90
30250;DHT22;17064;47.974;13.826;2023-05-07T18:31:48;15.70;99.90
30250;DHT22;17064;47.974;13.826;2023-05-07T18:36:49;15.60;99.90
30250;DHT22;17064;47.974;13.826;2023-05-07T18:41:50;15.50;99.90
30250;DHT22;17064;47.974;13.826;2023-05-07T18:46:50;15.40;99.90
30250;DHT22;17064;47.974;13.826;2023-05-07T18:51:51;15.30;99.90
30250;DHT22;17064;47.974;13.826;2023-05-07T18:56:52;15.30;99.90
30250;DHT22;17064;47.974;13.826;2023-05-07T19:01:53;15.20;99.90
30250;DHT22;17064;47.974;13.826;2023-05-07T19:07:00;15.00;99.90
30250;DHT22;17064;47.974;13.826;2023-05-07T19:12:01;15.00;99.90
30250;DHT22;17064;47.974;13.826;2023-05-07T19:17:01;14.90;99.90
30250;DHT22;17064;47.974;13.826;2023-05-07T19:22:02;14.80;99.90
30250;DHT22;17064;47.974;13.826;2023-05-07T19:27:03;14.80;99.90
30250;DHT22;17064;47.974;13.826;2023-05-07T19:32:04;14.80;99.90
30250;DHT22;17064;47.974;13.826;2023-05-07T19:37:04;14.70;99.90
30250;DHT22;17064;47.974;13.826;2023-05-07T19:42:05;14.70;99.90
30250;DHT22;17064;47.974;13.826;2023-05-07T19:47:06;14.60;99.90
30250;DHT22;17064;47.974;13.826;2023-05-07T19:52:07;14.50;99.90
30250;DHT22;17064;47.974;13.826;2023-05-07T19:57:08;14.40;99.90
30250;DHT22;17064;47.974;13.826;2023-05-07T20:02:08;14.40;99.90
30250;DHT22;17064;47.974;13.826;2023-05-07T20:07:09;14.30;99.90
30250;DHT22;17064;47.974;13.826;2023-05-07T20:12:10;14.20;99.90
30250;DHT22;17064;47.974;13.826;2023-05-07T20:17:11;14.10;99.90
30250;DHT22;17064;47.974;13.826;2023-05-07T20:22:12;14.10;99.90
30250;DHT22;17064;47.974;13.826;2023-05-07T20:27:12;14.00;99.90
30250;DHT22;17064;47.974;13.826;2023-05-07T20:32:13;14.00;99.90
30250;DHT22;17064;47.974;13.826;2023-05-07T20:37:14;13.90;99.90
30250;DHT22;17064;47.974;13.826;2023-05-07T20:42:15;13.80;99.90
30250;DHT22;17064;47.974;13.826;2023-05-07T20:47:16;13.60;99.90
30250;DHT22;17064;47.974;13.826;2023-05-07T20:52:17;13.30;99.90
30250;DHT22;17064;47.974;13.826;2023-05-07T20:57:18;13.10;99.90
30250;DHT22;17064;47.974;13.826;2023-05-07T21:02:19;12.80;99.90
30250;DHT22;17064;47.974;13.826;2023-05-07T21:07:20;12.60;99.90
30250;DHT22;17064;47.974;13.826;2023-05-07T21:12:21;12.40;99.90
30250;DHT22;17064;47.974;13.826;2023-05-07T21:17:22;12.30;99.90
30250;DHT22;17064;47.974;13.826;2023-05-07T21:22:23;12.20;99.90
30250;DHT22;17064;47.974;13.826;2023-05-07T21:27:25;12.10;99.90
30250;DHT22;17064;47.974;13.826;2023-05-07T21:32:27;11.90;99.90
30250;DHT22;17064;47.974;13.826;2023-05-07T21:37:27;11.80;99.90
30250;DHT22;17064;47.974;13.826;2023-05-07T21:42:28;11.60;99.90
30250;DHT22;17064;47.974;13.826;2023-05-07T21:47:29;11.50;99.90
30250;DHT22;17064;47.974;13.826;2023-05-07T21:52:29;11.30;99.90
30250;DHT22;17064;47.974;13.826;2023-05-07T21:57:30;11.20;99.90
30250;DHT22;17064;47.974;13.826;2023-05-07T22:02:31;11.10;99.90
30250;DHT22;17064;47.974;13.826;2023-05-07T22:07:32;11.00;99.90
30250;DHT22;17064;47.974;13.826;2023-05-07T22:12:32;10.90;99.90
30250;DHT22;17064;47.974;13.826;2023-05-07T22:17:33;10.80;99.90
30250;DHT22;17064;47.974;13.826;2023-05-07T22:22:47;10.70;99.90
30250;DHT22;17064;47.974;13.826;2023-05-07T22:27:50;10.60;99.90
30250;DHT22;17064;47.974;13.826;2023-05-07T22:32:50;10.50;99.90
30250;DHT22;17064;47.974;13.826;2023-05-07T22:37:51;10.40;99.90
30250;DHT22;17064;47.974;13.826;2023-05-07T22:42:52;10.40;99.90
30250;DHT22;17064;47.974;13.826;2023-05-07T22:47:59;10.20;99.90
30250;DHT22;17064;47.974;13.826;2023-05-07T22:53:00;10.10;99.90
30250;DHT22;17064;47.974;13.826;2023-05-07T22:58:03;9.90;99.90
30250;DHT22;17064;47.974;13.826;2023-05-07T23:03:04;9.80;99.90
30250;DHT22;17064;47.974;13.826;2023-05-07T23:08:05;9.70;99.90
30250;DHT22;17064;47.974;13.826;2023-05-07T23:13:06;9.50;99.90
30250;DHT22;17064;47.974;13.826;2023-05-07T23:18:12;9.40;99.90
30250;DHT22;17064;47.974;13.826;2023-05-07T23:23:13;9.20;99.90
30250;DHT22;17064;47.974;13.826;2023-05-07T23:28:14;9.10;99.90
30250;DHT22;17064;47.974;13.826;2023-05-07T23:33:14;9.00;99.90
30250;DHT22;17064;47.974;13.826;2023-05-07T23:38:15;8.80;99.90
30250;DHT22;17064;47.974;13.826;2023-05-07T23:43:16;8.70;99.90
30250;DHT22;17064;47.974;13.826;2023-05-07T23:48:17;8.50;99.90
30250;DHT22;17064;47.974;13.826;2023-05-07T23:53:18;8.40;99.90
30250;DHT22;17064;47.974;13.826;2023-05-07T23:58:18;8.20;99.90
